Time;durP1;ratioP1;P1;durP2;ratioP2;P2;SDS_P1;SDS_P2;PMS_P1;PMS_P2;Temp;Humidity;BMP_temperature;BMP_pressure;BME280_temperature;BME280_humidity;BME280_pressure;Samples;Min_cycle;Max_cycle;Signal;HPM_P1;HPM_P2
2023/09/02 09:14:09;;;;;;;2.20;1.70;;;17.40;99.90;;;;;;1908960;73;26286;-90
2023/09/02 09:39:43;;;;;;;1.53;1.43;;;17.70;99.90;;;;;;1961315;71;28148;-92
2023/09/02 09:45:31;;;;;;;1.63;1.40;;;18.20;99.90;;;;;;1957731;72;27768;-91
2023/09/02 09:48:21;;;;;;;1.90;1.60;;;18.20;99.90;;;;;;1919488;73;25224;-90
2023/09/02 10:25:15;;;;;;;1.40;1.30;;;19.00;99.90;;;;;;1978364;71;26818;-92
2023/09/02 10:31:29;;;;;;;1.97;1.30;;;19.20;99.90;;;;;;1943976;72;26967;-92
2023/09/02 10:34:32;;;;;;;1.50;1.40;;;19.40;99.90;;;;;;1917819;73;26625;-92
2023/09/02 10:37:28;;;;;;;1.67;1.40;;;19.60;99.90;;;;;;1916336;73;25328;-93
2023/09/02 10:40:21;;;;;;;1.10;1.00;;;19.80;99.90;;;;;;1829675;76;25323;-92
2023/09/02 10:43:11;;;;;;;1.00;1.00;;;19.60;99.90;;;;;;1885925;74;25744;-93
2023/09/02 10:46:01;;;;;;;1.40;1.13;;;19.70;99.90;;;;;;1882500;74;25330;-93
2023/09/02 10:48:51;;;;;;;1.20;1.10;;;19.90;99.90;;;;;;1889466;74;25313;-93
2023/09/02 10:51:43;;;;;;;1.20;1.10;;;20.00;99.90;;;;;;1817713;78;25329;-93
2023/09/02 10:55:17;;;;;;;1.10;1.10;;;19.90;99.90;;;;;;1833876;76;25267;-93
2023/09/02 11:12:09;;;;;;;1.37;1.10;;;19.80;99.90;;;;;;1944796;72;27016;-92
2023/09/02 11:15:46;;;;;;;1.43;1.07;;;19.90;99.90;;;;;;1932780;73;25234;-92
2023/09/02 11:46:28;;;;;;;2.67;1.10;;;20.10;99.90;;;;;;1906035;73;27169;-91
2023/09/02 11:50:34;;;;;;;1.10;1.00;;;20.30;99.90;;;;;;1902948;73;25191;-92
2023/09/02 12:07:08;;;;;;;1.77;1.20;;;20.60;99.90;;;;;;1962462;72;27519;-92
2023/09/02 12:23:59;;;;;;;1.50;1.40;;;20.50;99.90;;;;;;1947224;72;26938;-91
2023/09/02 12:26:47;;;;;;;1.83;1.20;;;20.30;99.90;;;;;;1936768;72;25244;-88
2023/09/02 12:29:36;;;;;;;1.37;1.20;;;19.90;99.90;;;;;;1943856;72;25267;-89
2023/09/02 12:32:25;;;;;;;1.63;1.53;;;19.90;99.90;;;;;;1928835;73;25279;-89
2023/09/02 12:35:15;;;;;;;2.60;1.47;;;19.90;99.90;;;;;;1945459;73;25267;-89
2023/09/02 12:38:08;;;;;;;1.57;1.47;;;20.00;99.90;;;;;;1943693;72;25262;-89
2023/09/02 12:43:39;;;;;;;1.97;1.80;;;20.20;99.90;;;;;;1940337;72;27041;-89
2023/09/02 12:46:28;;;;;;;1.93;1.60;;;20.20;99.90;;;;;;1927100;73;25570;-89
2023/09/02 12:49:17;;;;;;;1.93;1.77;;;20.40;99.90;;;;;;1935265;73;25274;-89
2023/09/02 12:52:15;;;;;;;3.43;1.70;;;20.50;99.90;;;;;;1924686;73;25229;-89
2023/09/02 12:55:05;;;;;;;4.57;2.10;;;20.30;99.90;;;;;;1920884;73;25225;-88
2023/09/02 13:00:44;;;;;;;2.43;1.70;;;20.20;99.90;;;;;;1942886;72;27715;-88
2023/09/02 13:06:17;;;;;;;3.97;2.00;;;20.40;99.90;;;;;;1933687;72;27039;-89
2023/09/02 13:09:07;;;;;;;2.10;1.90;;;20.40;99.90;;;;;;1871308;76;25261;-89
2023/09/02 13:11:56;;;;;;;1.73;1.50;;;20.30;99.90;;;;;;1850989;77;25264;-89
2023/09/02 13:14:45;;;;;;;2.17;1.50;;;20.20;99.90;;;;;;1895964;75;25781;-89
2023/09/02 13:17:34;;;;;;;2.07;1.83;;;20.10;99.90;;;;;;1869673;76;25230;-89
2023/09/02 13:20:23;;;;;;;2.10;1.90;;;20.00;99.90;;;;;;1904126;73;25279;-89
2023/09/02 13:23:12;;;;;;;3.70;1.70;;;20.10;99.90;;;;;;1907099;74;25251;-89
2023/09/02 13:26:01;;;;;;;2.63;2.13;;;20.20;99.90;;;;;;1866943;75;25296;-89
2023/09/02 13:28:49;;;;;;;3.37;2.17;;;20.30;99.90;;;;;;1849499;77;25262;-90
2023/09/02 13:31:39;;;;;;;2.07;1.70;;;20.30;99.90;;;;;;1901909;74;25699;-89
2023/09/02 13:34:31;;;;;;;2.57;1.90;;;20.40;99.90;;;;;;1869557;75;25702;-89
2023/09/02 13:37:27;;;;;;;1.67;1.57;;;20.60;99.90;;;;;;1837227;76;25325;-89
2023/09/02 13:40:36;;;;;;;1.70;1.57;;;20.50;99.90;;;;;;1902719;73;25222;-89
2023/09/02 13:43:25;;;;;;;4.97;1.57;;;20.50;99.90;;;;;;1872166;75;25296;-89
2023/09/02 13:46:15;;;;;;;1.30;1.20;;;20.50;99.90;;;;;;1827202;78;25347;-89
2023/09/02 13:49:04;;;;;;;1.73;1.50;;;20.50;99.90;;;;;;1813324;78;25348;-89
2023/09/02 13:51:52;;;;;;;1.20;1.20;;;20.60;99.90;;;;;;1871081;75;25293;-90
2023/09/02 13:57:23;;;;;;;2.23;1.47;;;20.60;99.90;;;;;;1917732;72;27068;-88
2023/09/02 14:03:02;;;;;;;1.60;1.50;;;20.70;99.90;;;;;;1918469;72;27329;-89
2023/09/02 14:05:53;;;;;;;2.27;1.30;;;20.80;99.90;;;;;;1912042;74;25286;-89
2023/09/02 14:08:44;;;;;;;1.70;1.50;;;20.60;99.90;;;;;;1862543;76;25209;-88
2023/09/02 14:11:32;;;;;;;1.60;1.50;;;20.60;99.90;;;;;;1876643;75;25339;-88
2023/09/02 14:14:22;;;;;;;1.10;1.10;;;20.50;99.90;;;;;;1878156;76;25171;-88
2023/09/02 14:17:11;;;;;;;2.67;1.27;;;20.40;99.90;;;;;;1875295;76;25207;-88
2023/09/02 14:19:59;;;;;;;1.50;1.40;;;20.40;99.90;;;;;;1838897;77;25309;-88
2023/09/02 14:22:48;;;;;;;6.10;1.60;;;20.10;99.90;;;;;;1877349;76;25244;-88
2023/09/02 14:25:37;;;;;;;1.50;1.40;;;19.90;99.90;;;;;;1866792;76;25216;-88
2023/09/02 14:28:26;;;;;;;2.37;1.13;;;19.90;99.90;;;;;;1908744;74;25153;-88
2023/09/02 14:31:15;;;;;;;2.47;1.33;;;19.60;99.90;;;;;;1912870;74;25152;-88
2023/09/02 14:34:04;;;;;;;1.47;1.37;;;19.60;99.90;;;;;;1909384;73;25254;-88
2023/09/02 14:39:37;;;;;;;1.40;1.30;;;19.80;99.90;;;;;;1933402;72;26994;-88
2023/09/02 14:42:26;;;;;;;1.80;1.40;;;19.90;99.90;;;;;;1889010;75;25677;-88
2023/09/02 14:45:14;;;;;;;1.53;1.40;;;20.10;99.90;;;;;;1901508;75;25682;-88
2023/09/02 14:48:02;;;;;;;1.37;1.30;;;20.00;99.90;;;;;;1891402;75;25201;-91
2023/09/02 14:50:51;;;;;;;1.60;1.40;;;20.10;99.90;;;;;;1888945;75;25340;-89
2023/09/02 14:53:41;;;;;;;2.70;1.37;;;20.10;99.90;;;;;;1885960;75;25644;-90
2023/09/02 14:56:29;;;;;;;1.60;1.50;;;20.10;99.90;;;;;;1903203;75;25681;-89
2023/09/02 15:02:02;;;;;;;1.37;1.27;;;20.10;99.90;;;;;;1939578;72;27634;-88
2023/09/02 15:04:50;;;;;;;1.60;1.50;;;20.20;99.90;;;;;;1904694;74;25347;-88
2023/09/02 15:07:41;;;;;;;1.50;1.40;;;20.30;99.90;;;;;;1912601;75;25304;-88
2023/09/02 15:10:30;;;;;;;5.17;1.30;;;20.10;99.90;;;;;;1903567;74;25184;-88
2023/09/02 15:13:19;;;;;;;1.40;1.30;;;19.90;99.90;;;;;;1904308;75;25857;-88
2023/09/02 15:16:10;;;;;;;1.60;1.20;;;19.90;99.90;;;;;;1908982;73;25757;-88
2023/09/02 15:18:59;;;;;;;3.00;1.27;;;19.90;99.90;;;;;;1902279;74;25704;-88
2023/09/02 15:21:48;;;;;;;1.30;1.30;;;19.90;99.90;;;;;;1906062;74;25179;-88
2023/09/02 15:24:37;;;;;;;1.90;1.40;;;19.90;99.90;;;;;;1899088;75;25297;-87
2023/09/02 15:27:26;;;;;;;1.33;1.20;;;19.60;99.90;;;;;;1898038;75;25311;-88
2023/09/02 15:32:57;;;;;;;1.93;1.20;;;19.40;99.90;;;;;;1922375;72;27097;-89
2023/09/02 15:35:47;;;;;;;1.50;1.40;;;19.30;99.90;;;;;;1898291;74;25296;-89
2023/09/02 15:38:37;;;;;;;1.77;1.27;;;19.20;99.90;;;;;;1903228;75;25287;-88
2023/09/02 15:41:25;;;;;;;2.40;1.60;;;19.20;99.90;;;;;;1898976;74;25382;-88
2023/09/02 15:46:54;;;;;;;2.57;1.50;;;19.10;99.90;;;;;;1922365;72;27111;-88
2023/09/02 15:49:43;;;;;;;2.87;1.30;;;19.10;99.90;;;;;;1910584;73;25242;-88
2023/09/02 15:55:10;;;;;;;1.83;1.30;;;19.00;99.90;;;;;;1934917;72;26891;-87
2023/09/02 15:57:59;;;;;;;5.00;1.53;;;19.00;99.90;;;;;;1904197;75;25372;-87
2023/09/02 16:00:48;;;;;;;1.37;1.27;;;18.90;99.90;;;;;;1898796;75;25242;-89
2023/09/02 16:03:36;;;;;;;1.43;1.27;;;18.90;99.90;;;;;;1889658;75;25335;-90
2023/09/02 16:06:24;;;;;;;1.43;1.33;;;19.00;99.90;;;;;;1912453;74;25296;-90
2023/09/02 16:09:13;;;;;;;1.80;1.40;;;19.00;99.90;;;;;;1909476;75;25214;-90
2023/09/02 16:12:02;;;;;;;3.37;1.40;;;19.20;99.90;;;;;;1842755;77;26807;-90
2023/09/02 16:27:59;;;;;;;4.33;2.67;;;19.40;99.90;;;;;;1892324;74;27006;-88
2023/09/02 16:33:31;;;;;;;6.43;1.57;;;19.10;99.90;;;;;;1930568;72;26982;-89
2023/09/02 16:36:20;;;;;;;1.50;1.40;;;19.10;99.90;;;;;;1911733;73;25832;-89
2023/09/02 16:39:11;;;;;;;1.27;1.17;;;19.00;99.90;;;;;;1903006;73;25299;-89
2023/09/02 16:44:48;;;;;;;2.17;1.60;;;18.80;99.90;;;;;;1920336;72;27134;-88
2023/09/02 16:50:19;;;;;;;4.00;2.97;;;18.60;99.90;;;;;;1930335;72;26997;-89
2023/09/02 16:53:09;;;;;;;4.40;2.70;;;18.50;99.90;;;;;;1896486;75;25821;-89
2023/09/02 16:56:03;;;;;;;2.77;2.30;;;18.40;99.90;;;;;;1874632;75;25211;-89
2023/09/02 16:58:52;;;;;;;3.90;2.40;;;18.40;99.90;;;;;;1890091;75;25165;-89
2023/09/02 17:01:42;;;;;;;3.70;2.70;;;18.20;99.90;;;;;;1875036;75;25196;-89
2023/09/02 17:07:47;;;;;;;2.33;1.93;;;18.00;99.90;;;;;;1980486;71;26280;-89
2023/09/02 17:13:16;;;;;;;2.30;2.10;;;17.90;99.90;;;;;;1923657;72;27122;-89
2023/09/02 17:16:09;;;;;;;2.00;1.80;;;17.90;99.90;;;;;;1900691;74;25231;-89
2023/09/02 17:18:58;;;;;;;1.70;1.60;;;17.80;99.90;;;;;;1865297;76;25353;-89
2023/09/02 17:21:48;;;;;;;2.30;1.57;;;17.70;99.90;;;;;;1864056;76;25767;-89
2023/09/02 17:24:38;;;;;;;2.23;1.47;;;17.70;99.90;;;;;;1873374;76;25785;-89
2023/09/02 17:27:27;;;;;;;1.93;1.50;;;17.60;99.90;;;;;;1871094;76;25372;-89
2023/09/02 17:30:21;;;;;;;2.40;1.67;;;17.50;99.90;;;;;;1859310;76;25221;-89
2023/09/02 17:33:10;;;;;;;2.27;1.73;;;17.40;99.90;;;;;;1834771;76;25253;-88
2023/09/02 17:35:59;;;;;;;3.07;1.70;;;17.40;99.90;;;;;;1833312;77;25300;-88
2023/09/02 17:38:48;;;;;;;1.90;1.60;;;17.40;99.90;;;;;;1874373;76;25241;-88
2023/09/02 17:41:37;;;;;;;1.90;1.70;;;17.20;99.90;;;;;;1808043;78;25333;-88
2023/09/02 17:44:25;;;;;;;3.93;1.83;;;17.10;99.90;;;;;;1884835;75;25160;-89
2023/09/02 17:47:13;;;;;;;5.40;2.37;;;16.90;99.90;;;;;;1837877;77;25808;-88
2023/09/02 17:50:03;;;;;;;7.93;3.20;;;16.70;99.90;;;;;;1816080;77;25240;-88
2023/09/02 17:52:52;;;;;;;5.27;2.60;;;16.60;99.90;;;;;;1878586;75;25240;-89
2023/09/02 17:55:40;;;;;;;3.73;2.30;;;16.50;99.90;;;;;;1843937;78;25377;-88
2023/09/02 18:01:22;;;;;;;4.13;2.47;;;16.20;99.90;;;;;;1953987;72;27019;-89
2023/09/02 18:20:01;;;;;;;2.93;1.90;;;15.30;99.90;;;;;;1931504;72;27599;-89
2023/09/02 18:22:49;;;;;;;3.40;2.23;;;15.10;99.90;;;;;;1904354;74;25323;-89
2023/09/02 18:28:16;;;;;;;3.83;2.20;;;15.10;99.90;;;;;;1937205;72;27090;-88
2023/09/02 18:33:52;;;;;;;6.03;2.80;;;14.90;99.90;;;;;;1966531;72;27202;-88
2023/09/02 18:36:41;;;;;;;5.90;2.80;;;14.80;99.90;;;;;;1931409;73;25261;-89
2023/09/02 18:39:29;;;;;;;3.70;2.70;;;14.70;99.90;;;;;;1928967;73;25224;-89
2023/09/02 18:42:18;;;;;;;5.83;2.53;;;14.50;99.90;;;;;;1921121;73;25324;-88
2023/09/02 18:45:09;;;;;;;4.83;2.90;;;14.40;99.90;;;;;;1923943;73;25249;-89
2023/09/02 18:47:57;;;;;;;4.07;3.00;;;14.30;99.90;;;;;;1917782;74;25205;-89
2023/09/02 18:50:45;;;;;;;5.37;2.60;;;14.20;99.90;;;;;;1930965;74;25799;-89
2023/09/02 18:53:34;;;;;;;5.00;2.60;;;14.10;99.90;;;;;;1903396;73;25331;-89
2023/09/02 18:56:22;;;;;;;6.07;2.70;;;14.10;99.90;;;;;;1914666;74;25257;-89
2023/09/02 18:59:11;;;;;;;4.63;2.70;;;13.90;99.90;;;;;;1913584;74;25308;-89
2023/09/02 19:01:59;;;;;;;10.03;2.53;;;13.80;99.90;;;;;;1907622;73;25222;-89
2023/09/02 19:04:48;;;;;;;4.30;2.97;;;13.60;99.90;;;;;;1915199;74;25226;-89
2023/09/02 19:10:22;;;;;;;6.63;2.67;;;13.40;99.90;;;;;;1949345;72;27061;-88
2023/09/02 19:13:11;;;;;;;6.43;3.53;;;13.40;99.90;;;;;;1917145;74;25217;-88
2023/09/02 19:16:00;;;;;;;6.90;2.90;;;13.40;99.90;;;;;;1922390;74;25684;-88
2023/09/02 19:18:49;;;;;;;5.67;3.13;;;13.40;99.90;;;;;;1932743;73;25730;-88
2023/09/02 19:21:37;;;;;;;3.20;2.37;;;13.40;99.90;;;;;;1920428;73;25213;-89
2023/09/02 19:24:26;;;;;;;5.00;2.93;;;13.30;99.90;;;;;;1932831;73;25221;-89
2023/09/02 19:27:14;;;;;;;5.63;3.33;;;13.10;99.90;;;;;;1922852;74;25247;-89
2023/09/02 19:30:04;;;;;;;6.37;3.37;;;13.00;99.90;;;;;;1921225;74;25223;-89
2023/09/02 19:32:53;;;;;;;5.77;3.33;;;12.90;99.90;;;;;;1920318;74;25269;-88
2023/09/02 19:35:41;;;;;;;5.30;3.43;;;12.90;99.90;;;;;;1910577;74;25214;-88
2023/09/02 19:38:30;;;;;;;5.63;3.20;;;12.80;99.90;;;;;;1928142;74;25290;-89
2023/09/02 19:41:18;;;;;;;7.40;2.93;;;12.90;99.90;;;;;;1918970;74;25738;-88
2023/09/02 19:44:07;;;;;;;6.90;3.47;;;12.80;99.90;;;;;;1932708;73;25779;-89
2023/09/02 19:49:42;;;;;;;8.67;3.50;;;12.50;99.90;;;;;;1951953;72;26913;-88
2023/09/02 19:52:32;;;;;;;4.63;3.30;;;12.40;99.90;;;;;;1886582;75;25196;-88
2023/09/02 19:55:21;;;;;;;7.13;2.90;;;12.40;99.90;;;;;;1931767;73;25710;-88
2023/09/02 19:58:09;;;;;;;9.17;3.20;;;12.30;99.90;;;;;;1924460;73;25300;-88
2023/09/02 20:00:58;;;;;;;5.07;3.37;;;12.30;99.90;;;;;;1938825;73;25293;-88
2023/09/02 20:06:33;;;;;;;6.47;3.43;;;12.10;99.90;;;;;;1948311;72;27053;-88
2023/09/02 20:09:22;;;;;;;6.57;2.83;;;12.00;99.90;;;;;;1931754;73;25752;-88
2023/09/02 20:12:11;;;;;;;6.07;3.00;;;12.00;99.90;;;;;;1920876;73;25214;-88
2023/09/02 20:15:00;;;;;;;6.23;3.23;;;11.90;99.90;;;;;;1920800;73;25387;-88
2023/09/02 20:17:48;;;;;;;3.83;2.87;;;11.90;99.90;;;;;;1941463;73;25702;-88
2023/09/02 20:20:37;;;;;;;4.10;3.03;;;11.90;99.90;;;;;;1922637;73;25315;-88
2023/09/02 20:23:26;;;;;;;3.63;3.00;;;11.70;99.90;;;;;;1886942;75;25676;-88
2023/09/02 20:26:14;;;;;;;5.13;2.80;;;11.60;99.90;;;;;;1860275;76;25326;-88
2023/09/02 20:29:03;;;;;;;9.40;3.07;;;11.60;99.90;;;;;;1927965;73;25295;-88
2023/09/02 20:31:52;;;;;;;4.63;3.03;;;11.60;99.90;;;;;;1943660;73;25629;-88
2023/09/02 20:34:41;;;;;;;7.80;2.90;;;11.50;99.90;;;;;;1936322;72;25301;-89
2023/09/02 20:37:30;;;;;;;5.17;3.07;;;11.40;99.90;;;;;;1939927;72;25642;-88
2023/09/02 20:40:19;;;;;;;5.00;2.90;;;11.40;99.90;;;;;;1925653;73;25648;-88
2023/09/02 20:43:09;;;;;;;4.57;2.97;;;11.20;99.90;;;;;;1918615;73;25314;-89
2023/09/02 20:45:57;;;;;;;3.47;2.63;;;11.20;99.90;;;;;;1921434;73;25423;-89
2023/09/02 20:51:33;;;;;;;5.90;2.97;;;11.20;99.90;;;;;;1950589;72;27592;-88
2023/09/02 20:54:22;;;;;;;4.60;2.63;;;11.10;99.90;;;;;;1923194;73;25208;-88
2023/09/02 20:59:56;;;;;;;6.10;2.67;;;11.00;99.90;;;;;;1932420;72;27551;-87
2023/09/02 21:02:44;;;;;;;4.00;2.53;;;10.80;99.90;;;;;;1903721;74;25843;-87
2023/09/02 21:05:33;;;;;;;8.33;2.97;;;10.70;99.90;;;;;;1909253;74;25660;-87
2023/09/02 21:08:22;;;;;;;4.37;2.80;;;10.60;99.90;;;;;;1893685;75;25258;-87
2023/09/02 21:13:50;;;;;;;4.17;2.90;;;10.70;99.90;;;;;;1947644;72;27077;-88
2023/09/02 21:16:40;;;;;;;5.40;3.30;;;10.70;99.90;;;;;;1924957;72;25246;-88
2023/09/02 21:19:29;;;;;;;2.83;2.50;;;10.60;99.90;;;;;;1943002;73;25781;-92
2023/09/02 21:22:17;;;;;;;4.60;2.90;;;10.50;99.90;;;;;;1943706;73;25154;-89
2023/09/02 21:25:08;;;;;;;4.23;2.77;;;10.40;99.90;;;;;;1933900;72;25168;-89
2023/09/02 21:27:56;;;;;;;6.90;3.23;;;10.40;99.90;;;;;;1940984;72;25635;-89
2023/09/02 21:30:45;;;;;;;7.63;2.70;;;10.50;99.90;;;;;;1940086;73;25278;-89
2023/09/02 21:33:33;;;;;;;4.53;2.93;;;10.40;99.90;;;;;;1939869;73;25213;-89
2023/09/02 21:36:22;;;;;;;4.07;3.10;;;10.30;99.90;;;;;;1942913;72;25293;-89
2023/09/02 21:39:10;;;;;;;4.67;2.73;;;10.20;99.90;;;;;;1936624;72;25761;-89
2023/09/02 21:41:59;;;;;;;9.00;2.60;;;10.00;99.90;;;;;;1933678;73;25255;-88
2023/09/02 21:44:49;;;;;;;3.53;2.70;;;9.90;99.90;;;;;;1915518;73;25640;-88
2023/09/02 21:47:37;;;;;;;4.93;2.70;;;9.90;99.90;;;;;;1915754;72;25291;-88
2023/09/02 21:53:10;;;;;;;3.13;2.60;;;9.80;99.90;;;;;;1955438;72;27664;-87
2023/09/02 21:55:59;;;;;;;5.67;2.70;;;9.90;99.90;;;;;;1917176;73;25311;-87
2023/09/02 21:58:47;;;;;;;3.17;2.63;;;9.80;99.90;;;;;;1928802;73;25205;-87
2023/09/02 22:01:36;;;;;;;6.43;3.20;;;9.70;99.90;;;;;;1917372;75;25203;-87
2023/09/02 22:04:25;;;;;;;3.53;2.80;;;9.70;99.90;;;;;;1923890;73;25699;-88
2023/09/02 22:07:14;;;;;;;6.57;3.20;;;9.70;99.90;;;;;;1917288;73;25266;-88
2023/09/02 22:10:03;;;;;;;7.63;2.70;;;9.60;99.90;;;;;;1919681;73;25196;-88
2023/09/02 22:12:51;;;;;;;4.23;3.00;;;9.60;99.90;;;;;;1917712;73;25246;-88
2023/09/02 22:15:39;;;;;;;7.30;2.93;;;9.60;99.90;;;;;;1917837;73;25226;-88
2023/09/02 22:18:28;;;;;;;3.13;2.77;;;9.60;99.90;;;;;;1917050;73;25218;-88
2023/09/02 22:21:17;;;;;;;6.03;2.90;;;9.70;99.90;;;;;;1918226;73;25317;-89
2023/09/02 22:24:06;;;;;;;6.67;2.93;;;9.70;99.90;;;;;;1920387;73;25645;-88
2023/09/02 22:26:57;;;;;;;3.07;2.77;;;9.70;99.90;;;;;;1922682;73;25188;-88
2023/09/02 22:32:25;;;;;;;4.80;3.30;;;9.80;99.90;;;;;;1928054;72;26877;-87
2023/09/02 22:37:55;;;;;;;6.83;3.10;;;9.80;99.90;;;;;;1931351;72;27758;-87
2023/09/02 22:40:44;;;;;;;4.00;2.97;;;9.80;99.90;;;;;;1892033;75;25246;-87
2023/09/02 22:43:32;;;;;;;3.83;2.90;;;9.70;99.90;;;;;;1855654;76;25754;-87
2023/09/02 22:46:21;;;;;;;4.53;3.03;;;9.60;99.90;;;;;;1865933;76;25793;-87
2023/09/02 22:49:22;;;;;;;8.97;3.00;;;9.60;99.90;;;;;;1872170;76;25393;-87
2023/09/02 22:52:10;;;;;;;4.97;3.00;;;9.60;99.90;;;;;;1866919;76;25268;-89
2023/09/02 22:54:59;;;;;;;5.90;3.03;;;9.50;99.90;;;;;;1866328;76;25246;-87
2023/09/02 22:57:48;;;;;;;10.17;3.07;;;9.50;99.90;;;;;;1862352;76;25245;-87
2023/09/02 23:00:38;;;;;;;8.67;3.30;;;9.60;99.90;;;;;;1860012;76;25354;-87
2023/09/02 23:06:09;;;;;;;6.10;3.27;;;9.50;99.90;;;;;;1923205;72;27119;-86
2023/09/02 23:08:57;;;;;;;3.23;2.63;;;9.50;99.90;;;;;;1910845;73;25216;-89
2023/09/02 23:11:45;;;;;;;4.60;3.00;;;9.50;99.90;;;;;;1895782;73;25306;-89
2023/09/02 23:17:17;;;;;;;4.57;3.03;;;9.40;99.90;;;;;;1978942;71;27098;-87
2023/09/02 23:20:07;;;;;;;4.20;2.80;;;9.40;99.90;;;;;;1932253;72;25647;-87
2023/09/02 23:22:56;;;;;;;3.67;2.90;;;9.40;99.90;;;;;;1929287;73;25210;-87
2023/09/02 23:25:52;;;;;;;4.10;2.83;;;9.40;99.90;;;;;;1920705;72;25733;-87
2023/09/02 23:28:41;;;;;;;3.83;2.70;;;9.40;99.90;;;;;;1934495;72;25152;-87
2023/09/02 23:31:30;;;;;;;5.93;3.00;;;9.40;99.90;;;;;;1933196;72;25713;-87
2023/09/02 23:34:18;;;;;;;4.73;2.60;;;9.40;99.90;;;;;;1880680;75;26616;-87
2023/09/02 23:37:07;;;;;;;6.17;2.60;;;9.40;99.90;;;;;;1935129;74;25364;-87
2023/09/02 23:39:56;;;;;;;5.03;2.80;;;9.30;99.90;;;;;;1941690;72;25635;-87
2023/09/02 23:45:24;;;;;;;6.30;3.30;;;9.30;99.90;;;;;;1930396;72;27427;-87
2023/09/02 23:48:14;;;;;;;7.10;3.17;;;9.20;99.90;;;;;;1907496;74;25693;-88
2023/09/02 23:51:02;;;;;;;5.50;3.30;;;9.10;99.90;;;;;;1895067;75;25791;-88
2023/09/02 23:56:31;;;;;;;8.63;3.00;;;9.00;99.90;;;;;;1928102;72;26995;-87
2023/09/02 23:59:19;;;;;;;8.97;3.50;;;8.90;99.90;;;;;;1905737;73;25222;-88
